sensor_id;sensor_type;location;lat;lon;timestamp;P1;durP1;ratioP1;P2;durP2;ratioP2
37907;SDS011;23740;51.550;6.846;2022-11-15T00:00:50;6.03;;;3.72;;
37907;SDS011;23740;51.550;6.846;2022-11-15T00:03:25;4.75;;;3.28;;
37907;SDS011;23740;51.550;6.846;2022-11-15T00:05:52;3.85;;;3.17;;
37907;SDS011;23740;51.550;6.846;2022-11-15T00:08:17;4.47;;;3.35;;
37907;SDS011;23740;51.550;6.846;2022-11-15T00:10:43;5.78;;;3.58;;
37907;SDS011;23740;51.550;6.846;2022-11-15T00:13:09;5.00;;;3.40;;
37907;SDS011;23740;51.550;6.846;2022-11-15T00:15:36;4.25;;;3.45;;
37907;SDS011;23740;51.550;6.846;2022-11-15T00:18:03;5.50;;;3.15;;
37907;SDS011;23740;51.550;6.846;2022-11-15T00:20:28;5.18;;;3.13;;
37907;SDS011;23740;51.550;6.846;2022-11-15T00:22:54;5.40;;;3.63;;
37907;SDS011;23740;51.550;6.846;2022-11-15T00:25:20;4.53;;;3.33;;
37907;SDS011;23740;51.550;6.846;2022-11-15T00:27:45;4.07;;;3.13;;
37907;SDS011;23740;51.550;6.846;2022-11-15T00:30:11;4.88;;;3.45;;
37907;SDS011;23740;51.550;6.846;2022-11-15T00:32:37;4.57;;;3.28;;
37907;SDS011;23740;51.550;6.846;2022-11-15T00:35:03;3.90;;;3.28;;
37907;SDS011;23740;51.550;6.846;2022-11-15T00:37:28;4.57;;;3.25;;
37907;SDS011;23740;51.550;6.846;2022-11-15T00:39:53;4.10;;;3.17;;
37907;SDS011;23740;51.550;6.846;2022-11-15T00:42:19;5.00;;;3.65;;
37907;SDS011;23740;51.550;6.846;2022-11-15T00:44:44;3.25;;;2.95;;
37907;SDS011;23740;51.550;6.846;2022-11-15T00:47:09;4.45;;;3.30;;
37907;SDS011;23740;51.550;6.846;2022-11-15T00:49:35;4.03;;;3.47;;
37907;SDS011;23740;51.550;6.846;2022-11-15T00:52:00;4.95;;;3.28;;
37907;SDS011;23740;51.550;6.846;2022-11-15T00:54:25;4.97;;;3.17;;
37907;SDS011;23740;51.550;6.846;2022-11-15T00:56:51;4.25;;;3.28;;
37907;SDS011;23740;51.550;6.846;2022-11-15T00:59:16;4.03;;;3.15;;
37907;SDS011;23740;51.550;6.846;2022-11-15T01:01:41;4.68;;;3.55;;
37907;SDS011;23740;51.550;6.846;2022-11-15T01:04:07;7.20;;;3.60;;
37907;SDS011;23740;51.550;6.846;2022-11-15T01:06:32;4.70;;;3.30;;
37907;SDS011;23740;51.550;6.846;2022-11-15T01:08:57;4.50;;;3.40;;
37907;SDS011;23740;51.550;6.846;2022-11-15T01:11:23;4.07;;;3.33;;
37907;SDS011;23740;51.550;6.846;2022-11-15T01:13:48;6.45;;;3.72;;
37907;SDS011;23740;51.550;6.846;2022-11-15T01:16:14;3.65;;;3.00;;
37907;SDS011;23740;51.550;6.846;2022-11-15T01:18:42;4.72;;;3.10;;
37907;SDS011;23740;51.550;6.846;2022-11-15T01:21:09;3.80;;;3.10;;
37907;SDS011;23740;51.550;6.846;2022-11-15T01:23:35;4.85;;;3.33;;
37907;SDS011;23740;51.550;6.846;2022-11-15T01:26:01;4.15;;;3.38;;
37907;SDS011;23740;51.550;6.846;2022-11-15T01:28:31;4.60;;;3.58;;
37907;SDS011;23740;51.550;6.846;2022-11-15T01:30:59;4.50;;;3.55;;
37907;SDS011;23740;51.550;6.846;2022-11-15T01:33:24;4.05;;;3.15;;
37907;SDS011;23740;51.550;6.846;2022-11-15T01:35:50;4.20;;;3.40;;
37907;SDS011;23740;51.550;6.846;2022-11-15T01:38:15;5.93;;;3.13;;
37907;SDS011;23740;51.550;6.846;2022-11-15T01:40:41;4.13;;;3.13;;
37907;SDS011;23740;51.550;6.846;2022-11-15T01:43:19;3.70;;;3.03;;
37907;SDS011;23740;51.550;6.846;2022-11-15T01:45:52;3.40;;;2.80;;
37907;SDS011;23740;51.550;6.846;2022-11-15T01:48:22;3.90;;;2.92;;
37907;SDS011;23740;51.550;6.846;2022-11-15T01:50:50;5.60;;;3.80;;
37907;SDS011;23740;51.550;6.846;2022-11-15T01:53:16;4.35;;;3.13;;
37907;SDS011;23740;51.550;6.846;2022-11-15T01:55:42;3.75;;;2.92;;
37907;SDS011;23740;51.550;6.846;2022-11-15T01:58:07;3.53;;;3.08;;
37907;SDS011;23740;51.550;6.846;2022-11-15T02:00:33;4.93;;;3.22;;
37907;SDS011;23740;51.550;6.846;2022-11-15T02:02:58;3.78;;;2.95;;
37907;SDS011;23740;51.550;6.846;2022-11-15T02:05:24;4.10;;;3.25;;
37907;SDS011;23740;51.550;6.846;2022-11-15T02:07:50;4.68;;;3.10;;
37907;SDS011;23740;51.550;6.846;2022-11-15T02:10:20;3.95;;;3.00;;
37907;SDS011;23740;51.550;6.846;2022-11-15T02:12:46;5.03;;;3.58;;
37907;SDS011;23740;51.550;6.846;2022-11-15T02:15:12;4.03;;;2.90;;
37907;SDS011;23740;51.550;6.846;2022-11-15T02:20:24;4.00;;;3.20;;
37907;SDS011;23740;51.550;6.846;2022-11-15T02:23:31;5.68;;;3.45;;
37907;SDS011;23740;51.550;6.846;2022-11-15T02:26:16;3.58;;;2.95;;
37907;SDS011;23740;51.550;6.846;2022-11-15T02:29:10;3.33;;;2.92;;
37907;SDS011;23740;51.550;6.846;2022-11-15T02:39:34;6.20;;;3.20;;
37907;SDS011;23740;51.550;6.846;2022-11-15T02:42:03;4.10;;;3.08;;
37907;SDS011;23740;51.550;6.846;2022-11-15T02:44:51;4.20;;;3.00;;
37907;SDS011;23740;51.550;6.846;2022-11-15T02:47:18;4.78;;;3.63;;
37907;SDS011;23740;51.550;6.846;2022-11-15T02:49:48;5.97;;;3.20;;
37907;SDS011;23740;51.550;6.846;2022-11-15T02:52:16;3.50;;;3.10;;
37907;SDS011;23740;51.550;6.846;2022-11-15T02:54:42;3.30;;;2.50;;
37907;SDS011;23740;51.550;6.846;2022-11-15T02:57:12;4.15;;;3.15;;
37907;SDS011;23740;51.550;6.846;2022-11-15T03:10:53;3.95;;;3.30;;
37907;SDS011;23740;51.550;6.846;2022-11-15T03:17:30;3.90;;;3.00;;
37907;SDS011;23740;51.550;6.846;2022-11-15T03:19:45;4.82;;;3.05;;
37907;SDS011;23740;51.550;6.846;2022-11-15T03:22:14;3.38;;;2.72;;
37907;SDS011;23740;51.550;6.846;2022-11-15T03:24:42;4.43;;;3.08;;
37907;SDS011;23740;51.550;6.846;2022-11-15T03:27:09;3.08;;;2.70;;
37907;SDS011;23740;51.550;6.846;2022-11-15T03:29:43;3.83;;;3.00;;
37907;SDS011;23740;51.550;6.846;2022-11-15T03:32:16;3.55;;;2.90;;
37907;SDS011;23740;51.550;6.846;2022-11-15T03:34:46;4.95;;;2.88;;
37907;SDS011;23740;51.550;6.846;2022-11-15T03:37:14;3.75;;;2.70;;
37907;SDS011;23740;51.550;6.846;2022-11-15T03:39:40;3.72;;;2.80;;
37907;SDS011;23740;51.550;6.846;2022-11-15T03:49:59;3.50;;;2.88;;
37907;SDS011;23740;51.550;6.846;2022-11-15T03:52:36;4.72;;;3.13;;
37907;SDS011;23740;51.550;6.846;2022-11-15T03:55:02;2.97;;;2.50;;
37907;SDS011;23740;51.550;6.846;2022-11-15T03:57:30;3.90;;;2.72;;
37907;SDS011;23740;51.550;6.846;2022-11-15T03:59:55;2.97;;;2.63;;
37907;SDS011;23740;51.550;6.846;2022-11-15T04:02:20;4.13;;;2.65;;
37907;SDS011;23740;51.550;6.846;2022-11-15T04:04:46;3.75;;;2.70;;
37907;SDS011;23740;51.550;6.846;2022-11-15T04:07:11;3.15;;;2.72;;
37907;SDS011;23740;51.550;6.846;2022-11-15T04:09:36;3.22;;;2.90;;
37907;SDS011;23740;51.550;6.846;2022-11-15T04:12:20;3.65;;;2.50;;
37907;SDS011;23740;51.550;6.846;2022-11-15T04:15:02;4.93;;;3.00;;
37907;SDS011;23740;51.550;6.846;2022-11-15T04:18:08;3.97;;;2.88;;
37907;SDS011;23740;51.550;6.846;2022-11-15T04:20:28;4.40;;;3.15;;
37907;SDS011;23740;51.550;6.846;2022-11-15T04:25:59;3.00;;;2.55;;
37907;SDS011;23740;51.550;6.846;2022-11-15T04:28:26;3.28;;;2.60;;
37907;SDS011;23740;51.550;6.846;2022-11-15T04:30:52;3.55;;;2.72;;
37907;SDS011;23740;51.550;6.846;2022-11-15T04:33:17;3.40;;;2.83;;
37907;SDS011;23740;51.550;6.846;2022-11-15T04:35:42;5.90;;;3.08;;
37907;SDS011;23740;51.550;6.846;2022-11-15T04:38:08;3.88;;;3.10;;
37907;SDS011;23740;51.550;6.846;2022-11-15T04:40:35;3.70;;;2.72;;
37907;SDS011;23740;51.550;6.846;2022-11-15T04:43:00;3.53;;;2.72;;
37907;SDS011;23740;51.550;6.846;2022-11-15T04:45:26;4.65;;;2.88;;
37907;SDS011;23740;51.550;6.846;2022-11-15T04:47:51;4.00;;;2.63;;
37907;SDS011;23740;51.550;6.846;2022-11-15T04:50:16;3.63;;;2.75;;
37907;SDS011;23740;51.550;6.846;2022-11-15T04:52:43;3.72;;;2.60;;
37907;SDS011;23740;51.550;6.846;2022-11-15T04:55:13;3.78;;;2.88;;
37907;SDS011;23740;51.550;6.846;2022-11-15T04:57:39;3.63;;;2.53;;
37907;SDS011;23740;51.550;6.846;2022-11-15T05:00:05;4.85;;;2.92;;
37907;SDS011;23740;51.550;6.846;2022-11-15T05:02:32;3.03;;;2.50;;
37907;SDS011;23740;51.550;6.846;2022-11-15T05:05:16;4.00;;;2.83;;
37907;SDS011;23740;51.550;6.846;2022-11-15T05:07:41;3.72;;;2.55;;
37907;SDS011;23740;51.550;6.846;2022-11-15T05:10:07;4.50;;;2.85;;
37907;SDS011;23740;51.550;6.846;2022-11-15T05:12:33;3.00;;;2.60;;
37907;SDS011;23740;51.550;6.846;2022-11-15T05:14:58;3.33;;;2.80;;
37907;SDS011;23740;51.550;6.846;2022-11-15T05:17:23;4.63;;;2.70;;
37907;SDS011;23740;51.550;6.846;2022-11-15T05:19:49;4.00;;;2.95;;
37907;SDS011;23740;51.550;6.846;2022-11-15T05:22:14;3.40;;;2.40;;
37907;SDS011;23740;51.550;6.846;2022-11-15T05:24:39;3.80;;;2.72;;
37907;SDS011;23740;51.550;6.846;2022-11-15T05:27:05;4.35;;;2.60;;
37907;SDS011;23740;51.550;6.846;2022-11-15T05:29:30;4.32;;;3.15;;
37907;SDS011;23740;51.550;6.846;2022-11-15T05:31:55;3.17;;;2.38;;
37907;SDS011;23740;51.550;6.846;2022-11-15T05:34:21;5.30;;;2.60;;
37907;SDS011;23740;51.550;6.846;2022-11-15T05:36:47;3.05;;;2.58;;
37907;SDS011;23740;51.550;6.846;2022-11-15T05:39:13;3.03;;;2.47;;
37907;SDS011;23740;51.550;6.846;2022-11-15T05:41:43;3.33;;;2.78;;
37907;SDS011;23740;51.550;6.846;2022-11-15T05:44:11;3.72;;;2.42;;
37907;SDS011;23740;51.550;6.846;2022-11-15T05:46:39;3.80;;;2.95;;
37907;SDS011;23740;51.550;6.846;2022-11-15T05:49:06;3.95;;;2.85;;
37907;SDS011;23740;51.550;6.846;2022-11-15T05:51:32;3.30;;;2.70;;
37907;SDS011;23740;51.550;6.846;2022-11-15T05:53:58;3.40;;;2.88;;
37907;SDS011;23740;51.550;6.846;2022-11-15T05:56:24;4.55;;;2.97;;
37907;SDS011;23740;51.550;6.846;2022-11-15T05:58:51;2.95;;;2.53;;
37907;SDS011;23740;51.550;6.846;2022-11-15T06:01:17;4.05;;;2.90;;
37907;SDS011;23740;51.550;6.846;2022-11-15T06:03:42;3.42;;;2.67;;
37907;SDS011;23740;51.550;6.846;2022-11-15T06:06:08;3.55;;;2.60;;
37907;SDS011;23740;51.550;6.846;2022-11-15T06:08:33;3.35;;;2.72;;
37907;SDS011;23740;51.550;6.846;2022-11-15T06:11:03;3.08;;;2.63;;
37907;SDS011;23740;51.550;6.846;2022-11-15T06:13:30;3.47;;;2.65;;
37907;SDS011;23740;51.550;6.846;2022-11-15T06:15:55;3.55;;;2.50;;
37907;SDS011;23740;51.550;6.846;2022-11-15T06:18:21;4.20;;;2.70;;
37907;SDS011;23740;51.550;6.846;2022-11-15T06:20:46;4.13;;;2.65;;
37907;SDS011;23740;51.550;6.846;2022-11-15T06:23:12;3.47;;;2.50;;
37907;SDS011;23740;51.550;6.846;2022-11-15T06:25:38;2.92;;;2.50;;
37907;SDS011;23740;51.550;6.846;2022-11-15T06:28:03;3.28;;;2.72;;
37907;SDS011;23740;51.550;6.846;2022-11-15T06:30:29;2.78;;;2.47;;
37907;SDS011;23740;51.550;6.846;2022-11-15T06:33:01;3.55;;;2.50;;
37907;SDS011;23740;51.550;6.846;2022-11-15T06:35:28;3.45;;;2.50;;
37907;SDS011;23740;51.550;6.846;2022-11-15T06:37:53;3.67;;;3.10;;
37907;SDS011;23740;51.550;6.846;2022-11-15T06:40:19;3.58;;;2.40;;
37907;SDS011;23740;51.550;6.846;2022-11-15T06:42:44;4.18;;;2.70;;
37907;SDS011;23740;51.550;6.846;2022-11-15T06:45:10;3.33;;;2.50;;
37907;SDS011;23740;51.550;6.846;2022-11-15T06:47:35;3.05;;;2.58;;
37907;SDS011;23740;51.550;6.846;2022-11-15T06:50:00;3.80;;;2.80;;
37907;SDS011;23740;51.550;6.846;2022-11-15T06:52:26;2.80;;;2.40;;
37907;SDS011;23740;51.550;6.846;2022-11-15T06:54:51;3.47;;;2.67;;
37907;SDS011;23740;51.550;6.846;2022-11-15T06:57:17;3.20;;;2.25;;
37907;SDS011;23740;51.550;6.846;2022-11-15T06:59:42;2.78;;;2.38;;
37907;SDS011;23740;51.550;6.846;2022-11-15T07:02:14;3.33;;;2.50;;
37907;SDS011;23740;51.550;6.846;2022-11-15T07:04:39;2.83;;;2.30;;
37907;SDS011;23740;51.550;6.846;2022-11-15T07:07:05;3.85;;;2.47;;
37907;SDS011;23740;51.550;6.846;2022-11-15T07:09:30;3.30;;;2.58;;
37907;SDS011;23740;51.550;6.846;2022-11-15T07:11:55;6.78;;;2.42;;
37907;SDS011;23740;51.550;6.846;2022-11-15T07:14:21;3.25;;;2.30;;
37907;SDS011;23740;51.550;6.846;2022-11-15T07:16:46;3.00;;;2.40;;
37907;SDS011;23740;51.550;6.846;2022-11-15T07:19:11;3.70;;;2.45;;
37907;SDS011;23740;51.550;6.846;2022-11-15T07:21:37;4.25;;;2.60;;
37907;SDS011;23740;51.550;6.846;2022-11-15T07:24:02;3.35;;;2.58;;
37907;SDS011;23740;51.550;6.846;2022-11-15T07:26:29;3.35;;;2.30;;
37907;SDS011;23740;51.550;6.846;2022-11-15T07:28:54;2.83;;;2.15;;
37907;SDS011;23740;51.550;6.846;2022-11-15T07:31:20;3.58;;;3.10;;
37907;SDS011;23740;51.550;6.846;2022-11-15T07:33:46;3.15;;;2.53;;
37907;SDS011;23740;51.550;6.846;2022-11-15T07:36:11;3.65;;;2.47;;
37907;SDS011;23740;51.550;6.846;2022-11-15T07:38:36;3.05;;;2.60;;
37907;SDS011;23740;51.550;6.846;2022-11-15T07:41:04;2.50;;;2.30;;
37907;SDS011;23740;51.550;6.846;2022-11-15T07:43:30;3.28;;;2.58;;
37907;SDS011;23740;51.550;6.846;2022-11-15T07:45:58;3.05;;;2.40;;
37907;SDS011;23740;51.550;6.846;2022-11-15T07:48:23;2.95;;;2.35;;
37907;SDS011;23740;51.550;6.846;2022-11-15T07:50:49;4.05;;;2.22;;
37907;SDS011;23740;51.550;6.846;2022-11-15T07:53:14;2.42;;;2.20;;
37907;SDS011;23740;51.550;6.846;2022-11-15T07:55:40;3.38;;;2.25;;
37907;SDS011;23740;51.550;6.846;2022-11-15T07:58:09;2.67;;;2.35;;
37907;SDS011;23740;51.550;6.846;2022-11-15T08:00:36;2.35;;;2.00;;
37907;SDS011;23740;51.550;6.846;2022-11-15T08:03:02;2.30;;;2.03;;
37907;SDS011;23740;51.550;6.846;2022-11-15T08:05:28;2.70;;;2.50;;
37907;SDS011;23740;51.550;6.846;2022-11-15T08:07:55;3.33;;;2.50;;
37907;SDS011;23740;51.550;6.846;2022-11-15T08:10:20;3.38;;;2.63;;
37907;SDS011;23740;51.550;6.846;2022-11-15T08:12:46;3.75;;;2.50;;
37907;SDS011;23740;51.550;6.846;2022-11-15T08:15:11;3.10;;;2.40;;
37907;SDS011;23740;51.550;6.846;2022-11-15T08:17:36;2.83;;;2.63;;
37907;SDS011;23740;51.550;6.846;2022-11-15T08:20:02;3.40;;;2.28;;
37907;SDS011;23740;51.550;6.846;2022-11-15T08:22:28;4.45;;;2.60;;
37907;SDS011;23740;51.550;6.846;2022-11-15T08:24:53;3.88;;;2.50;;
37907;SDS011;23740;51.550;6.846;2022-11-15T08:27:19;2.42;;;2.22;;
37907;SDS011;23740;51.550;6.846;2022-11-15T08:29:44;2.80;;;2.25;;
37907;SDS011;23740;51.550;6.846;2022-11-15T08:32:10;2.72;;;2.20;;
37907;SDS011;23740;51.550;6.846;2022-11-15T08:34:36;1.92;;;1.80;;
37907;SDS011;23740;51.550;6.846;2022-11-15T08:37:03;2.47;;;2.15;;
37907;SDS011;23740;51.550;6.846;2022-11-15T08:39:28;2.75;;;2.08;;
37907;SDS011;23740;51.550;6.846;2022-11-15T08:41:53;3.38;;;2.15;;
37907;SDS011;23740;51.550;6.846;2022-11-15T08:44:19;3.22;;;2.33;;
37907;SDS011;23740;51.550;6.846;2022-11-15T08:46:47;2.40;;;1.98;;
37907;SDS011;23740;51.550;6.846;2022-11-15T08:49:12;2.10;;;1.90;;
37907;SDS011;23740;51.550;6.846;2022-11-15T08:51:38;2.30;;;2.10;;
37907;SDS011;23740;51.550;6.846;2022-11-15T08:54:03;1.88;;;1.77;;
37907;SDS011;23740;51.550;6.846;2022-11-15T08:56:29;2.40;;;2.17;;
37907;SDS011;23740;51.550;6.846;2022-11-15T08:58:55;3.70;;;2.00;;
37907;SDS011;23740;51.550;6.846;2022-11-15T09:01:20;3.20;;;2.90;;
37907;SDS011;23740;51.550;6.846;2022-11-15T09:03:46;4.10;;;2.35;;
37907;SDS011;23740;51.550;6.846;2022-11-15T09:06:12;3.38;;;2.50;;
37907;SDS011;23740;51.550;6.846;2022-11-15T09:08:37;2.25;;;2.05;;
37907;SDS011;23740;51.550;6.846;2022-11-15T09:11:06;3.83;;;2.63;;
37907;SDS011;23740;51.550;6.846;2022-11-15T09:13:32;2.83;;;2.25;;
37907;SDS011;23740;51.550;6.846;2022-11-15T09:15:58;2.20;;;1.85;;
37907;SDS011;23740;51.550;6.846;2022-11-15T09:18:24;2.50;;;2.22;;
37907;SDS011;23740;51.550;6.846;2022-11-15T09:20:50;2.42;;;1.83;;
37907;SDS011;23740;51.550;6.846;2022-11-15T09:23:15;2.22;;;1.95;;
37907;SDS011;23740;51.550;6.846;2022-11-15T09:25:41;2.65;;;2.15;;
37907;SDS011;23740;51.550;6.846;2022-11-15T09:28:06;3.17;;;2.03;;
37907;SDS011;23740;51.550;6.846;2022-11-15T09:30:32;2.55;;;2.17;;
37907;SDS011;23740;51.550;6.846;2022-11-15T09:32:58;2.65;;;2.10;;
37907;SDS011;23740;51.550;6.846;2022-11-15T09:35:23;3.40;;;2.17;;
37907;SDS011;23740;51.550;6.846;2022-11-15T09:37:48;2.35;;;2.13;;
37907;SDS011;23740;51.550;6.846;2022-11-15T09:40:14;3.20;;;2.25;;
37907;SDS011;23740;51.550;6.846;2022-11-15T09:51:13;2.28;;;1.80;;
37907;SDS011;23740;51.550;6.846;2022-11-15T09:53:48;2.75;;;1.88;;
37907;SDS011;23740;51.550;6.846;2022-11-15T09:56:18;2.78;;;2.15;;
37907;SDS011;23740;51.550;6.846;2022-11-15T10:01:39;2.08;;;1.88;;
37907;SDS011;23740;51.550;6.846;2022-11-15T10:04:08;2.53;;;2.22;;
37907;SDS011;23740;51.550;6.846;2022-11-15T10:06:34;2.08;;;1.85;;
37907;SDS011;23740;51.550;6.846;2022-11-15T10:09:06;2.97;;;2.10;;
37907;SDS011;23740;51.550;6.846;2022-11-15T10:11:36;4.00;;;2.08;;
37907;SDS011;23740;51.550;6.846;2022-11-15T10:14:04;3.33;;;1.75;;
37907;SDS011;23740;51.550;6.846;2022-11-15T10:24:52;2.03;;;1.80;;
37907;SDS011;23740;51.550;6.846;2022-11-15T10:27:26;2.42;;;2.03;;
37907;SDS011;23740;51.550;6.846;2022-11-15T10:29:51;3.38;;;2.80;;
37907;SDS011;23740;51.550;6.846;2022-11-15T10:32:18;3.17;;;2.10;;
37907;SDS011;23740;51.550;6.846;2022-11-15T10:34:44;2.78;;;1.60;;
37907;SDS011;23740;51.550;6.846;2022-11-15T10:37:10;2.38;;;1.90;;
37907;SDS011;23740;51.550;6.846;2022-11-15T10:39:35;2.40;;;1.80;;
37907;SDS011;23740;51.550;6.846;2022-11-15T10:44:51;2.40;;;1.67;;
37907;SDS011;23740;51.550;6.846;2022-11-15T10:47:21;2.50;;;1.90;;
37907;SDS011;23740;51.550;6.846;2022-11-15T10:49:57;2.72;;;1.83;;
37907;SDS011;23740;51.550;6.846;2022-11-15T10:52:24;1.70;;;1.60;;
37907;SDS011;23740;51.550;6.846;2022-11-15T10:57:19;2.03;;;1.75;;
37907;SDS011;23740;51.550;6.846;2022-11-15T10:59:48;1.70;;;1.55;;
37907;SDS011;23740;51.550;6.846;2022-11-15T11:02:29;2.83;;;1.88;;
37907;SDS011;23740;51.550;6.846;2022-11-15T11:04:57;2.78;;;1.95;;
37907;SDS011;23740;51.550;6.846;2022-11-15T11:07:23;3.03;;;1.90;;
37907;SDS011;23740;51.550;6.846;2022-11-15T11:09:58;2.38;;;1.77;;
37907;SDS011;23740;51.550;6.846;2022-11-15T11:12:27;2.90;;;1.98;;
37907;SDS011;23740;51.550;6.846;2022-11-15T11:15:18;2.20;;;1.60;;
37907;SDS011;23740;51.550;6.846;2022-11-15T11:36:58;0.95;;;0.85;;
37907;SDS011;23740;51.550;6.846;2022-11-15T11:43:06;2.55;;;1.30;;
37907;SDS011;23740;51.550;6.846;2022-11-15T11:47:38;1.13;;;1.02;;
37907;SDS011;23740;51.550;6.846;2022-11-15T11:55:21;3.03;;;1.30;;
37907;SDS011;23740;51.550;6.846;2022-11-15T11:58:01;1.95;;;1.50;;
37907;SDS011;23740;51.550;6.846;2022-11-15T12:00:29;1.27;;;1.10;;
37907;SDS011;23740;51.550;6.846;2022-11-15T12:03:09;1.10;;;1.00;;
37907;SDS011;23740;51.550;6.846;2022-11-15T12:05:39;2.38;;;1.38;;
37907;SDS011;23740;51.550;6.846;2022-11-15T12:13:42;1.63;;;1.25;;
37907;SDS011;23740;51.550;6.846;2022-11-15T12:18:54;1.75;;;1.15;;
37907;SDS011;23740;51.550;6.846;2022-11-15T12:23:51;1.70;;;1.38;;
37907;SDS011;23740;51.550;6.846;2022-11-15T12:26:23;1.15;;;1.05;;
37907;SDS011;23740;51.550;6.846;2022-11-15T12:29:35;2.53;;;1.38;;
37907;SDS011;23740;51.550;6.846;2022-11-15T12:31:43;3.00;;;1.13;;
37907;SDS011;23740;51.550;6.846;2022-11-15T12:36:50;2.97;;;1.10;;
37907;SDS011;23740;51.550;6.846;2022-11-15T12:39:16;2.13;;;1.45;;
37907;SDS011;23740;51.550;6.846;2022-11-15T12:41:44;2.15;;;0.95;;
37907;SDS011;23740;51.550;6.846;2022-11-15T12:52:03;2.65;;;1.10;;
37907;SDS011;23740;51.550;6.846;2022-11-15T13:04:50;1.50;;;1.00;;
37907;SDS011;23740;51.550;6.846;2022-11-15T13:10:46;2.58;;;1.38;;
37907;SDS011;23740;51.550;6.846;2022-11-15T13:13:06;2.65;;;0.93;;
37907;SDS011;23740;51.550;6.846;2022-11-15T13:18:15;2.05;;;0.90;;
37907;SDS011;23740;51.550;6.846;2022-11-15T13:20:50;1.13;;;0.70;;
37907;SDS011;23740;51.550;6.846;2022-11-15T13:23:15;2.13;;;0.88;;
37907;SDS011;23740;51.550;6.846;2022-11-15T13:31:18;3.65;;;1.10;;
37907;SDS011;23740;51.550;6.846;2022-11-15T13:33:47;2.67;;;1.15;;
37907;SDS011;23740;51.550;6.846;2022-11-15T13:36:13;1.98;;;0.95;;
37907;SDS011;23740;51.550;6.846;2022-11-15T13:38:40;1.08;;;0.77;;
37907;SDS011;23740;51.550;6.846;2022-11-15T13:41:19;1.02;;;0.95;;
37907;SDS011;23740;51.550;6.846;2022-11-15T13:43:46;2.97;;;0.90;;
37907;SDS011;23740;51.550;6.846;2022-11-15T13:46:16;1.13;;;0.80;;
37907;SDS011;23740;51.550;6.846;2022-11-15T13:48:44;0.85;;;0.85;;
37907;SDS011;23740;51.550;6.846;2022-11-15T13:53:55;3.53;;;1.00;;
37907;SDS011;23740;51.550;6.846;2022-11-15T13:56:23;1.95;;;0.90;;
37907;SDS011;23740;51.550;6.846;2022-11-15T13:58:50;1.30;;;0.80;;
37907;SDS011;23740;51.550;6.846;2022-11-15T14:01:19;2.15;;;0.80;;
37907;SDS011;23740;51.550;6.846;2022-11-15T14:03:55;0.70;;;0.70;;
37907;SDS011;23740;51.550;6.846;2022-11-15T14:06:23;0.95;;;0.88;;
37907;SDS011;23740;51.550;6.846;2022-11-15T14:11:34;3.03;;;1.30;;
37907;SDS011;23740;51.550;6.846;2022-11-15T14:16:34;1.20;;;0.80;;
37907;SDS011;23740;51.550;6.846;2022-11-15T14:19:02;1.30;;;0.70;;
37907;SDS011;23740;51.550;6.846;2022-11-15T14:21:28;1.88;;;0.95;;
37907;SDS011;23740;51.550;6.846;2022-11-15T14:24:13;1.48;;;1.00;;
37907;SDS011;23740;51.550;6.846;2022-11-15T14:26:41;4.85;;;1.35;;
37907;SDS011;23740;51.550;6.846;2022-11-15T14:31:47;1.13;;;0.57;;
37907;SDS011;23740;51.550;6.846;2022-11-15T14:34:13;0.70;;;0.57;;
37907;SDS011;23740;51.550;6.846;2022-11-15T14:36:38;2.10;;;0.80;;
37907;SDS011;23740;51.550;6.846;2022-11-15T14:39:03;1.60;;;1.00;;
37907;SDS011;23740;51.550;6.846;2022-11-15T14:41:33;2.17;;;1.02;;
37907;SDS011;23740;51.550;6.846;2022-11-15T14:44:02;2.83;;;1.00;;
37907;SDS011;23740;51.550;6.846;2022-11-15T14:46:28;1.25;;;1.00;;
37907;SDS011;23740;51.550;6.846;2022-11-15T14:48:54;2.45;;;0.75;;
37907;SDS011;23740;51.550;6.846;2022-11-15T14:51:19;1.77;;;0.82;;
37907;SDS011;23740;51.550;6.846;2022-11-15T14:53:45;1.40;;;0.90;;
37907;SDS011;23740;51.550;6.846;2022-11-15T14:56:11;1.98;;;0.93;;
37907;SDS011;23740;51.550;6.846;2022-11-15T14:58:37;5.85;;;1.50;;
37907;SDS011;23740;51.550;6.846;2022-11-15T15:01:24;2.03;;;1.02;;
37907;SDS011;23740;51.550;6.846;2022-11-15T15:03:49;3.17;;;0.90;;
37907;SDS011;23740;51.550;6.846;2022-11-15T15:06:16;1.33;;;0.70;;
37907;SDS011;23740;51.550;6.846;2022-11-15T15:08:42;1.70;;;1.15;;
37907;SDS011;23740;51.550;6.846;2022-11-15T15:11:10;3.35;;;1.00;;
37907;SDS011;23740;51.550;6.846;2022-11-15T15:14:03;1.88;;;0.90;;
37907;SDS011;23740;51.550;6.846;2022-11-15T15:16:28;1.17;;;0.82;;
37907;SDS011;23740;51.550;6.846;2022-11-15T15:18:53;1.85;;;1.00;;
37907;SDS011;23740;51.550;6.846;2022-11-15T15:23:48;1.55;;;0.95;;
37907;SDS011;23740;51.550;6.846;2022-11-15T15:26:14;3.50;;;0.85;;
37907;SDS011;23740;51.550;6.846;2022-11-15T15:28:39;1.40;;;0.93;;
37907;SDS011;23740;51.550;6.846;2022-11-15T15:31:04;1.50;;;1.08;;
37907;SDS011;23740;51.550;6.846;2022-11-15T15:33:30;1.42;;;0.80;;
37907;SDS011;23740;51.550;6.846;2022-11-15T15:35:56;3.33;;;1.00;;
37907;SDS011;23740;51.550;6.846;2022-11-15T15:38:21;1.80;;;0.82;;
37907;SDS011;23740;51.550;6.846;2022-11-15T15:40:47;1.38;;;0.95;;
37907;SDS011;23740;51.550;6.846;2022-11-15T15:43:13;1.85;;;0.90;;
37907;SDS011;23740;51.550;6.846;2022-11-15T15:45:40;1.25;;;1.02;;
37907;SDS011;23740;51.550;6.846;2022-11-15T15:48:13;2.45;;;1.02;;
37907;SDS011;23740;51.550;6.846;2022-11-15T15:50:41;5.47;;;0.93;;
37907;SDS011;23740;51.550;6.846;2022-11-15T15:53:08;1.63;;;1.10;;
37907;SDS011;23740;51.550;6.846;2022-11-15T15:55:35;1.90;;;0.90;;
37907;SDS011;23740;51.550;6.846;2022-11-15T15:58:01;2.85;;;1.10;;
37907;SDS011;23740;51.550;6.846;2022-11-15T16:00:26;2.00;;;0.95;;
37907;SDS011;23740;51.550;6.846;2022-11-15T16:02:52;2.90;;;1.17;;
37907;SDS011;23740;51.550;6.846;2022-11-15T16:05:18;4.15;;;1.20;;
37907;SDS011;23740;51.550;6.846;2022-11-15T16:07:43;0.73;;;0.73;;
37907;SDS011;23740;51.550;6.846;2022-11-15T16:10:28;2.05;;;0.85;;
37907;SDS011;23740;51.550;6.846;2022-11-15T16:12:58;1.15;;;0.70;;
37907;SDS011;23740;51.550;6.846;2022-11-15T16:15:24;2.70;;;0.90;;
37907;SDS011;23740;51.550;6.846;2022-11-15T16:20:33;1.10;;;0.95;;
37907;SDS011;23740;51.550;6.846;2022-11-15T16:23:10;2.50;;;1.23;;
37907;SDS011;23740;51.550;6.846;2022-11-15T16:28:18;1.25;;;0.88;;
37907;SDS011;23740;51.550;6.846;2022-11-15T16:30:59;1.45;;;0.93;;
37907;SDS011;23740;51.550;6.846;2022-11-15T16:33:25;0.85;;;0.77;;
37907;SDS011;23740;51.550;6.846;2022-11-15T16:35:51;1.25;;;0.95;;
37907;SDS011;23740;51.550;6.846;2022-11-15T16:38:16;2.72;;;1.10;;
37907;SDS011;23740;51.550;6.846;2022-11-15T16:40:42;2.17;;;1.13;;
37907;SDS011;23740;51.550;6.846;2022-11-15T16:43:08;1.10;;;0.95;;
37907;SDS011;23740;51.550;6.846;2022-11-15T16:45:34;2.60;;;1.20;;
37907;SDS011;23740;51.550;6.846;2022-11-15T16:47:59;1.15;;;0.80;;
37907;SDS011;23740;51.550;6.846;2022-11-15T16:50:26;1.15;;;1.02;;
37907;SDS011;23740;51.550;6.846;2022-11-15T16:52:53;1.27;;;0.97;;
37907;SDS011;23740;51.550;6.846;2022-11-15T16:55:20;0.85;;;0.80;;
37907;SDS011;23740;51.550;6.846;2022-11-15T16:57:47;2.47;;;1.08;;
37907;SDS011;23740;51.550;6.846;2022-11-15T17:00:12;2.22;;;1.25;;
37907;SDS011;23740;51.550;6.846;2022-11-15T17:02:48;1.73;;;1.20;;
37907;SDS011;23740;51.550;6.846;2022-11-15T17:05:15;3.42;;;1.40;;
37907;SDS011;23740;51.550;6.846;2022-11-15T17:07:41;1.38;;;0.95;;
37907;SDS011;23740;51.550;6.846;2022-11-15T17:10:08;9.95;;;1.73;;
37907;SDS011;23740;51.550;6.846;2022-11-15T17:12:35;4.18;;;1.25;;
37907;SDS011;23740;51.550;6.846;2022-11-15T17:15:00;2.83;;;0.88;;
37907;SDS011;23740;51.550;6.846;2022-11-15T17:17:26;2.28;;;1.23;;
37907;SDS011;23740;51.550;6.846;2022-11-15T17:19:52;5.75;;;1.35;;
37907;SDS011;23740;51.550;6.846;2022-11-15T17:22:18;2.47;;;1.02;;
37907;SDS011;23740;51.550;6.846;2022-11-15T17:24:43;1.90;;;1.00;;